Time;durP1;ratioP1;P1;durP2;ratioP2;P2;SDS_P1;SDS_P2;PMS_P1;PMS_P2;Temp;Humidity;BMP_temperature;BMP_pressure;BME280_temperature;BME280_humidity;BME280_pressure;Samples;Min_cycle;Max_cycle;Signal;HPM_P1;HPM_P2
2021/12/06 00:02:24;;;;;;;8.43;3.38;;;;;;;3.38;100.00;99539.28;4995524;28;19959;-73
2021/12/06 00:04:50;;;;;;;6.78;2.38;;;;;;;3.37;100.00;99538.44;4995134;28;20042;-73
2021/12/06 00:07:19;;;;;;;5.35;2.80;;;;;;;3.51;100.00;99543.44;4995393;28;20125;-73
2021/12/06 00:09:45;;;;;;;7.40;2.88;;;;;;;3.39;100.00;99539.25;4994967;28;20062;-73
2021/12/06 00:12:11;;;;;;;6.95;2.58;;;;;;;3.40;100.00;99533.22;4995560;28;20057;-74
2021/12/06 00:14:38;;;;;;;;;;;;;;;3.39;100.00;99534.09;4995283;28;20052;-72
2021/12/06 00:17:05;;;;;;;;;;;;;;;3.28;100.00;99526.47;4995602;28;19926;-72
2021/12/06 00:19:31;;;;;;;7.28;2.80;;;;;;;3.23;100.00;99530.84;4995262;28;20541;-72
2021/12/06 00:21:59;;;;;;;7.45;3.28;;;;;;;3.32;100.00;99524.72;4995244;28;20041;-72
2021/12/06 00:24:26;;;;;;;9.15;3.47;;;;;;;3.38;100.00;99534.97;4994120;28;20440;-73
2021/12/06 00:26:52;;;;;;;6.47;3.10;;;;;;;3.40;100.00;99537.53;4995019;28;20062;-74
2021/12/06 00:29:18;;;;;;;5.50;2.65;;;;;;;3.47;100.00;99541.75;4994580;28;20034;-74
2021/12/06 00:31:43;;;;;;;;;;;;;;;3.61;100.00;99548.50;4994929;28;20113;-74
2021/12/06 00:34:13;;;;;;;7.65;3.17;;;;;;;3.52;100.00;99543.44;4994474;28;20001;-75
2021/12/06 00:36:43;;;;;;;6.47;2.40;;;;;;;3.48;100.00;99551.25;4994685;28;20058;-74
2021/12/06 00:39:12;;;;;;;7.70;2.80;;;;;;;3.39;100.00;99552.19;4994766;28;20022;-74
2021/12/06 00:41:39;;;;;;;5.65;2.70;;;;;;;3.25;100.00;99548.94;4994407;28;20038;-74
2021/12/06 00:44:07;;;;;;;6.25;3.25;;;;;;;3.35;100.00;99541.03;4994360;28;20405;-72
2021/12/06 00:46:34;;;;;;;12.30;3.03;;;;;;;3.31;100.00;99554.91;4993357;28;20046;-72
2021/12/06 00:48:59;;;;;;;5.45;2.60;;;;;;;3.35;100.00;99546.19;4994242;28;20037;-72
2021/12/06 00:51:25;;;;;;;4.50;2.13;;;;;;;3.46;100.00;99555.56;4994591;28;20034;-73
2021/12/06 00:53:50;;;;;;;6.18;2.47;;;;;;;3.28;100.00;99549.75;4994131;28;20706;-73
2021/12/06 00:56:16;;;;;;;7.07;2.97;;;;;;;3.33;100.00;99552.28;4994220;28;20041;-73
2021/12/06 00:58:41;;;;;;;6.75;2.83;;;;;;;3.33;100.00;99555.75;4994373;28;20042;-73
2021/12/06 01:01:08;;;;;;;6.72;3.13;;;;;;;3.47;100.00;99560.72;4994091;28;20157;-74
2021/12/06 01:03:36;;;;;;;9.73;3.15;;;;;;;3.47;100.00;99565.06;4994576;28;20476;-73
2021/12/06 01:06:04;;;;;;;6.78;3.22;;;;;;;3.26;100.00;99573.94;4994031;28;20041;-73
2021/12/06 01:08:29;;;;;;;9.57;3.35;;;;;;;3.10;100.00;99577.53;4994017;28;20121;-74
2021/12/06 01:10:55;;;;;;;8.05;3.22;;;;;;;3.13;100.00;99575.78;4994239;28;20517;-74
2021/12/06 01:13:21;;;;;;;8.55;3.67;;;;;;;2.96;100.00;99582.84;4994205;28;20026;-73
2021/12/06 01:15:46;;;;;;;;;;;;;;;2.96;100.00;99595.78;4994280;28;20117;-74
2021/12/06 01:18:14;;;;;;;9.98;3.90;;;;;;;3.00;100.00;99602.59;4993834;28;19914;-74
2021/12/06 01:20:50;;;;;;;9.40;3.08;;;;;;;2.90;100.00;99608.75;4994076;28;20030;-73
2021/12/06 01:23:19;;;;;;;7.05;3.75;;;;;;;2.84;100.00;99611.38;4993704;28;20034;-74
2021/12/06 01:29:01;;;;;;;7.00;3.42;;;;;;;2.78;100.00;99620.06;4955711;28;24277;-74
2021/12/06 01:39:29;;;;;;;6.10;2.85;;;;;;;2.74;100.00;99638.16;4993661;28;20093;-74
2021/12/06 01:41:59;;;;;;;7.45;3.60;;;;;;;2.70;100.00;99637.34;4993866;28;20421;-73
2021/12/06 01:44:30;;;;;;;6.57;3.38;;;;;;;2.75;100.00;99638.16;4993586;28;20081;-74
2021/12/06 01:47:02;;;;;;;7.78;3.15;;;;;;;2.67;100.00;99639.94;4993561;28;20026;-73
2021/12/06 01:49:34;;;;;;;7.43;3.50;;;;;;;2.67;100.00;99640.78;4993886;28;20998;-74
2021/12/06 01:52:05;;;;;;;8.25;3.22;;;;;;;2.68;100.00;99647.69;4993375;28;20098;-73
2021/12/06 01:54:31;;;;;;;7.97;3.08;;;;;;;2.80;100.00;99653.63;4993383;28;20492;-74
2021/12/06 01:56:56;;;;;;;10.20;3.53;;;;;;;2.70;100.00;99650.25;4993897;28;20030;-74
2021/12/06 01:59:25;;;;;;;7.72;3.47;;;;;;;2.69;100.00;99657.16;4993541;28;20517;-74
2021/12/06 02:01:52;;;;;;;8.45;3.58;;;;;;;2.74;100.00;99659.69;4993408;28;20030;-74
2021/12/06 02:04:18;;;;;;;7.03;3.13;;;;;;;2.63;100.00;99670.09;4993623;28;20105;-74
2021/12/06 02:06:43;;;;;;;10.23;3.53;;;;;;;2.59;100.00;99665.84;4993687;28;20110;-73
2021/12/06 02:09:11;;;;;;;8.52;3.55;;;;;;;2.58;100.00;99671.88;4993303;28;20062;-73
2021/12/06 02:11:39;;;;;;;8.68;3.72;;;;;;;2.60;100.00;99664.13;4993282;28;20421;-74
2021/12/06 02:14:24;;;;;;;8.15;3.45;;;;;;;2.73;100.00;99657.97;4993135;28;20034;-74
2021/12/06 02:17:03;;;;;;;7.82;3.47;;;;;;;2.69;100.00;99667.47;4993186;28;20042;-74
2021/12/06 02:19:33;;;;;;;10.07;3.63;;;;;;;2.82;100.00;99669.97;4993284;28;20069;-74
2021/12/06 02:22:00;;;;;;;7.03;3.15;;;;;;;2.74;100.00;99672.63;4993385;28;20057;-74
2021/12/06 02:24:26;;;;;;;7.38;3.58;;;;;;;2.59;100.00;99673.59;4993154;28;20033;-75
2021/12/06 02:26:53;;;;;;;6.97;3.60;;;;;;;2.57;100.00;99680.50;4993409;28;20034;-74
2021/12/06 02:29:19;;;;;;;8.02;3.45;;;;;;;2.57;100.00;99682.22;5008367;28;20058;-74
2021/12/06 02:31:45;;;;;;;7.63;3.83;;;;;;;2.58;100.00;99687.38;4993226;28;20392;-74
2021/12/06 02:34:10;;;;;;;8.23;3.72;;;;;;;2.62;100.00;99690.78;4992974;28;20168;-74
2021/12/06 02:36:36;;;;;;;8.07;4.13;;;;;;;2.68;100.00;99694.19;4993064;28;20076;-73
2021/12/06 02:39:05;;;;;;;8.15;3.58;;;;;;;2.59;100.00;99689.09;4993406;28;20046;-74
2021/12/06 02:41:33;;;;;;;8.30;3.50;;;;;;;2.48;100.00;99685.72;4993290;28;20038;-73
2021/12/06 02:43:58;;;;;;;8.07;3.35;;;;;;;2.43;100.00;99687.47;4992951;28;20026;-73
2021/12/06 02:46:24;;;;;;;9.80;3.88;;;;;;;2.43;100.00;99686.59;4994005;28;20041;-74
2021/12/06 02:48:49;;;;;;;9.13;4.18;;;;;;;2.42;100.00;99688.34;4995598;28;20046;-74
2021/12/06 02:51:16;;;;;;;10.65;4.35;;;;;;;2.41;100.00;99685.75;4995209;28;20030;-74
2021/12/06 02:53:42;;;;;;;9.25;4.28;;;;;;;2.37;100.00;99696.97;4996374;28;20035;-74
2021/12/06 02:56:31;;;;;;;8.00;3.88;;;;;;;2.37;100.00;99694.38;4996711;28;20090;-73
2021/12/06 02:58:56;;;;;;;7.70;3.50;;;;;;;2.45;100.00;99701.25;4996497;28;20034;-73
2021/12/06 03:01:27;;;;;;;9.68;4.18;;;;;;;2.39;100.00;99703.84;4996442;28;20500;-73
2021/12/06 03:03:53;;;;;;;8.80;3.90;;;;;;;2.35;100.00;99709.88;4996245;28;20045;-73
2021/12/06 03:06:20;;;;;;;8.45;3.92;;;;;;;2.34;100.00;99705.59;4996391;28;20056;-73
2021/12/06 03:08:52;;;;;;;7.30;4.18;;;;;;;2.34;100.00;99714.19;4996256;28;20459;-74
2021/12/06 03:11:28;;;;;;;9.82;4.20;;;;;;;2.37;100.00;99707.31;4996505;28;20042;-73
2021/12/06 03:13:54;;;;;;;8.60;3.70;;;;;;;2.29;100.00;99713.34;4996608;28;20037;-74
2021/12/06 03:16:20;;;;;;;7.93;4.28;;;;;;;2.30;100.00;99720.25;4995968;28;20289;-74
2021/12/06 03:18:47;;;;;;;10.38;4.55;;;;;;;2.26;100.00;99708.19;4996365;28;20058;-74
2021/12/06 03:21:13;;;;;;;9.10;4.53;;;;;;;2.28;100.00;99713.38;4996223;28;20477;-74
2021/12/06 03:23:39;;;;;;;10.20;4.20;;;;;;;2.40;100.00;99715.03;4996284;28;20030;-73
2021/12/06 03:26:06;;;;;;;8.48;4.32;;;;;;;2.42;100.00;99708.13;4996003;28;20046;-74
2021/12/06 03:28:39;;;;;;;8.73;4.57;;;;;;;2.31;100.00;99706.47;4954898;28;20045;-74
2021/12/06 03:31:06;;;;;;;10.77;4.22;;;;;;;2.29;100.00;99710.78;4996228;28;20540;-73
2021/12/06 03:33:34;;;;;;;9.95;4.22;;;;;;;2.29;100.00;99708.19;4995756;28;20109;-73
2021/12/06 03:35:59;;;;;;;11.35;3.72;;;;;;;2.23;100.00;99703.06;4996075;28;20030;-74
2021/12/06 03:38:25;;;;;;;14.80;5.18;;;;;;;2.20;100.00;99709.97;4996088;28;20458;-73
2021/12/06 03:40:50;;;;;;;9.02;3.83;;;;;;;2.19;100.00;99716.00;4995556;28;20034;-74
2021/12/06 03:43:16;;;;;;;10.77;5.38;;;;;;;2.13;100.00;99718.63;4996051;28;20457;-73
2021/12/06 03:45:41;;;;;;;11.10;4.28;;;;;;;2.27;100.00;99722.84;4995538;28;20492;-73
2021/12/06 03:48:07;;;;;;;8.48;4.40;;;;;;;2.24;100.00;99727.16;4995966;28;20038;-73
2021/12/06 03:50:32;;;;;;;9.43;4.73;;;;;;;2.19;100.00;99722.03;4995756;28;20049;-74
2021/12/06 03:52:57;;;;;;;9.33;4.43;;;;;;;2.13;100.00;99723.78;4995394;28;20368;-74
2021/12/06 03:55:23;;;;;;;8.57;3.80;;;;;;;2.08;100.00;99721.22;4995413;28;20272;-74
2021/12/06 03:57:48;;;;;;;9.13;4.13;;;;;;;1.98;100.00;99720.38;4994776;28;20332;-74
2021/12/06 04:00:14;;;;;;;12.40;4.57;;;;;;;1.91;100.00;99718.66;4995153;28;20132;-74
2021/12/06 04:02:41;;;;;;;;;;;;;;;1.88;100.00;99730.72;4995931;28;20301;-73
2021/12/06 04:05:07;;;;;;;8.07;3.80;;;;;;;1.71;100.00;99735.09;4994218;28;20004;-73
2021/12/06 04:07:32;;;;;;;7.57;3.45;;;;;;;1.51;100.00;99733.38;4995165;28;20108;-74
2021/12/06 04:09:58;;;;;;;12.32;3.95;;;;;;;1.50;100.00;99730.81;4995009;28;20113;-73
2021/12/06 04:12:23;;;;;;;7.97;4.10;;;;;;;1.37;100.00;99745.44;4995523;28;20038;-73
2021/12/06 04:14:49;;;;;;;10.88;4.55;;;;;;;1.34;100.00;99740.28;4995256;28;20030;-73
2021/12/06 04:17:15;;;;;;;6.93;3.35;;;;;;;1.43;100.00;99737.72;4995350;28;20482;-73
2021/12/06 04:19:41;;;;;;;7.65;3.97;;;;;;;1.27;100.00;99744.59;4995151;28;20039;-73
2021/12/06 04:22:08;;;;;;;9.30;4.10;;;;;;;1.31;100.00;99740.28;4994819;28;20465;-73
2021/12/06 04:24:33;;;;;;;7.40;3.67;;;;;;;1.45;100.00;99737.72;4994889;28;20026;-73
2021/12/06 04:27:02;;;;;;;11.45;4.13;;;;;;;1.29;100.00;99752.31;4994914;28;20033;-73
2021/12/06 04:29:28;;;;;;;11.30;4.05;;;;;;;1.15;100.00;99754.03;4994994;28;20030;-73
2021/12/06 04:31:55;;;;;;;8.65;4.35;;;;;;;1.12;100.00;99757.47;4994877;28;20031;-73
2021/12/06 04:34:21;;;;;;;8.40;4.00;;;;;;;1.17;100.00;99760.06;4994642;28;20113;-74
2021/12/06 04:36:47;;;;;;;;;;;;;;;1.15;100.00;99760.06;4995047;28;20030;-73
2021/12/06 04:39:15;;;;;;;7.80;3.53;;;;;;;1.12;100.00;99756.59;4993593;28;19916;-73
2021/12/06 04:41:42;;;;;;;11.40;4.38;;;;;;;1.04;100.00;99766.06;4994728;28;20049;-73
2021/12/06 04:44:09;;;;;;;8.32;4.03;;;;;;;0.84;100.00;99766.88;4993612;28;20114;-73
2021/12/06 04:46:36;;;;;;;8.70;3.97;;;;;;;0.79;100.00;99778.91;4994426;28;20034;-73
2021/12/06 04:49:03;;;;;;;7.72;3.53;;;;;;;0.84;100.00;99779.78;4994633;28;20026;-73
2021/12/06 04:51:29;;;;;;;9.05;4.68;;;;;;;0.91;100.00;99783.22;4994706;28;20026;-75
2021/12/06 04:53:54;;;;;;;10.32;4.88;;;;;;;0.91;100.00;99780.66;4994634;28;20152;-73
2021/12/06 04:56:40;;;;;;;10.68;4.65;;;;;;;0.91;100.00;99785.81;4994370;28;20385;-73
2021/12/06 04:59:17;;;;;;;10.70;4.40;;;;;;;0.88;100.00;99789.22;4994463;28;20416;-73
2021/12/06 05:01:46;;;;;;;11.88;4.80;;;;;;;0.86;100.00;99792.66;4994160;28;20026;-74
2021/12/06 05:04:18;;;;;;;12.15;4.05;;;;;;;0.83;100.00;99792.66;4994204;28;20045;-73
2021/12/06 05:06:48;;;;;;;9.93;3.95;;;;;;;0.82;100.00;99799.53;4994236;28;20030;-74
2021/12/06 05:09:17;;;;;;;11.20;4.93;;;;;;;0.85;100.00;99804.69;4993721;28;20037;-73
2021/12/06 05:11:44;;;;;;;9.13;4.25;;;;;;;0.84;100.00;99804.69;4994088;28;20034;-73
2021/12/06 05:14:10;;;;;;;7.63;3.95;;;;;;;0.70;100.00;99807.22;5008801;28;20027;-73
2021/12/06 05:16:36;;;;;;;11.52;5.07;;;;;;;0.62;100.00;99808.91;4993557;28;20113;-73
2021/12/06 05:19:03;;;;;;;;;;;;;;;0.42;100.00;99826.00;4994142;28;20035;-73
2021/12/06 05:21:28;;;;;;;9.73;4.43;;;;;;;0.23;100.00;99831.06;4994177;28;19914;-73
2021/12/06 05:23:54;;;;;;;9.10;4.45;;;;;;;0.14;100.00;99841.31;4992690;28;20045;-73
2021/12/06 05:26:20;;;;;;;10.50;4.57;;;;;;;-0.02;100.00;99831.78;4993656;28;20026;-73
2021/12/06 05:28:47;;;;;;;11.55;4.70;;;;;;;-0.08;100.00;99845.47;4952388;28;20046;-74
2021/12/06 05:31:15;;;;;;;12.85;5.20;;;;;;;-0.23;100.00;99840.19;4993673;28;20128;-73
2021/12/06 05:33:47;;;;;;;12.90;4.38;;;;;;;-0.10;100.00;99846.31;4993660;28;20026;-73
2021/12/06 05:36:14;;;;;;;9.50;4.32;;;;;;;-0.39;100.00;99840.97;4993762;28;20359;-73
2021/12/06 05:38:39;;;;;;;11.27;4.85;;;;;;;-0.62;100.00;99842.47;4993896;28;20114;-72
2021/12/06 05:41:05;;;;;;;8.18;4.57;;;;;;;-0.78;100.00;99856.91;4993960;28;20497;-73
2021/12/06 05:43:32;;;;;;;13.35;5.78;;;;;;;-0.82;100.00;99856.00;4994036;28;20038;-72
2021/12/06 05:45:58;;;;;;;11.90;4.28;;;;;;;-0.73;100.00;99865.47;4992427;28;20037;-72
2021/12/06 05:48:23;;;;;;;10.88;4.55;;;;;;;-0.78;100.00;99860.31;4993757;28;20038;-73
2021/12/06 05:50:49;;;;;;;16.15;4.40;;;;;;;-0.88;100.00;99862.78;4994676;28;20041;-73
2021/12/06 05:53:16;;;;;;;13.35;5.55;;;;;;;-0.74;100.00;99858.63;4993652;28;20034;-73
2021/12/06 05:55:42;;;;;;;16.30;5.65;;;;;;;-0.70;100.00;99860.38;4993757;28;20077;-72
2021/12/06 05:58:10;;;;;;;12.00;5.38;;;;;;;-0.96;100.00;99855.00;5008830;28;20027;-73
2021/12/06 06:00:36;;;;;;;12.80;5.20;;;;;;;-0.83;100.00;99848.28;4992385;28;20054;-73
2021/12/06 06:03:05;;;;;;;10.73;3.83;;;;;;;-1.07;100.00;99852.31;4993583;28;20030;-73
2021/12/06 06:05:33;;;;;;;6.75;3.17;;;;;;;-1.12;100.00;99853.97;4993760;28;20489;-73
2021/12/06 06:07:59;;;;;;;9.50;3.60;;;;;;;-1.17;100.00;99859.91;4993462;28;20089;-72
2021/12/06 06:10:24;;;;;;;8.20;3.70;;;;;;;-1.24;100.00;99858.97;4992314;28;20034;-72
2021/12/06 06:12:50;;;;;;;9.45;3.38;;;;;;;-1.30;100.00;99863.16;4993441;28;20046;-72
2021/12/06 06:15:16;;;;;;;9.05;3.65;;;;;;;-1.22;100.00;99861.56;4993201;28;20026;-72
2021/12/06 06:17:47;;;;;;;9.73;3.72;;;;;;;-1.15;100.00;99859.09;4993733;28;20047;-72
2021/12/06 06:20:22;;;;;;;8.73;4.53;;;;;;;-1.14;100.00;99865.09;4991732;28;20038;-72
2021/12/06 06:22:48;;;;;;;7.97;3.67;;;;;;;-1.10;100.00;99857.41;4996543;28;20030;-73
2021/12/06 06:25:15;;;;;;;10.77;4.55;;;;;;;-1.01;100.00;99862.66;4997601;28;20031;-72
2021/12/06 06:27:41;;;;;;;11.05;4.25;;;;;;;-0.87;100.00;99862.78;4997209;28;20038;-72
2021/12/06 06:30:07;;;;;;;9.63;4.18;;;;;;;-0.98;100.00;99863.53;4996941;28;20030;-72
2021/12/06 06:32:33;;;;;;;9.20;3.80;;;;;;;-0.69;100.00;99864.66;4996667;28;20031;-72
2021/12/06 06:34:58;;;;;;;9.57;4.72;;;;;;;-0.77;100.00;99874.91;5011857;28;20547;-72
2021/12/06 06:37:23;;;;;;;10.63;4.22;;;;;;;-0.75;100.00;99867.19;4997121;28;20053;-72
2021/12/06 06:39:49;;;;;;;11.48;4.93;;;;;;;-0.48;100.00;99867.44;4996943;28;20091;-73
2021/12/06 06:42:15;;;;;;;10.70;5.38;;;;;;;-0.35;100.00;99871.81;5011853;28;20088;-74
2021/12/06 06:44:40;;;;;;;;;;;;;;;-0.28;100.00;99866.72;4997216;28;20038;-73
2021/12/06 06:47:06;;;;;;;9.73;4.82;;;;;;;-0.41;100.00;99870.94;4997010;28;19917;-72
2021/12/06 06:49:31;;;;;;;11.32;5.22;;;;;;;-0.26;100.00;99870.19;4997070;28;20030;-73
2021/12/06 06:51:59;;;;;;;13.75;4.90;;;;;;;-0.18;100.00;99876.25;4996616;28;20031;-73
2021/12/06 06:54:24;;;;;;;12.88;6.43;;;;;;;-0.07;100.00;99870.34;5011829;28;20038;-74
2021/12/06 06:56:50;;;;;;;16.23;7.40;;;;;;;0.04;100.00;99872.97;4996495;28;20077;-73
2021/12/06 06:59:15;;;;;;;12.93;5.88;;;;;;;0.11;100.00;99879.03;4996757;28;20042;-73
2021/12/06 07:01:41;;;;;;;12.93;5.82;;;;;;;0.19;100.00;99867.06;4995326;28;20042;-73
2021/12/06 07:04:07;;;;;;;14.40;7.32;;;;;;;0.24;100.00;99865.38;4996330;28;20397;-73
2021/12/06 07:06:33;;;;;;;13.48;6.75;;;;;;;0.23;100.00;99859.38;5010998;28;20038;-74
2021/12/06 07:08:58;;;;;;;15.80;6.95;;;;;;;0.15;100.00;99853.31;4996082;28;20026;-74
2021/12/06 07:11:25;;;;;;;15.02;6.38;;;;;;;0.05;100.00;99856.69;4995511;28;20037;-73
2021/12/06 07:13:51;;;;;;;12.13;6.25;;;;;;;0.07;100.00;99849.84;4995845;28;20038;-73
2021/12/06 07:16:17;;;;;;;13.98;5.57;;;;;;;0.05;100.00;99851.53;4996015;28;20100;-74
2021/12/06 07:18:43;;;;;;;12.95;5.43;;;;;;;0.03;100.00;99853.22;4996112;28;20045;-74
2021/12/06 07:21:09;;;;;;;13.40;5.43;;;;;;;-0.02;100.00;99865.22;4995954;28;20026;-74
2021/12/06 07:23:38;;;;;;;;;;;;;;;-0.29;100.00;99860.72;4996143;28;20054;-74
2021/12/06 07:26:06;;;;;;;9.80;4.18;;;;;;;-0.36;100.00;99861.53;4955918;28;19914;-74
2021/12/06 07:28:31;;;;;;;10.38;5.07;;;;;;;-0.45;100.00;99872.63;4996108;28;20451;-74
2021/12/06 07:30:58;;;;;;;11.40;5.43;;;;;;;-0.46;100.00;99865.75;4994896;28;20031;-74
2021/12/06 07:33:25;;;;;;;9.95;4.55;;;;;;;-0.25;100.00;99865.06;4995654;28;20038;-74
2021/12/06 07:35:51;;;;;;;11.90;5.75;;;;;;;-0.04;100.00;99874.66;4995790;28;20054;-73
2021/12/06 07:38:17;;;;;;;10.73;5.15;;;;;;;0.09;100.00;99880.72;4995894;28;20097;-74
2021/12/06 07:40:42;;;;;;;11.63;5.50;;;;;;;-0.07;100.00;99879.78;4995737;28;20038;-74
2021/12/06 07:43:08;;;;;;;11.15;5.57;;;;;;;0.31;100.00;99870.59;4995814;28;20030;-74
2021/12/06 07:45:33;;;;;;;11.18;4.40;;;;;;;0.25;100.00;99885.13;4995837;28;20034;-74
2021/12/06 07:47:58;;;;;;;10.15;5.05;;;;;;;-0.12;100.00;99884.88;4995884;28;20113;-74
2021/12/06 07:50:24;;;;;;;10.57;5.28;;;;;;;-0.22;100.00;99887.38;4996131;28;20436;-74
2021/12/06 07:52:51;;;;;;;15.68;6.53;;;;;;;-0.24;100.00;99891.63;5010654;28;20026;-74
2021/12/06 07:55:19;;;;;;;14.35;6.55;;;;;;;-0.20;100.00;99888.25;4995470;28;20042;-73
2021/12/06 07:57:45;;;;;;;13.25;5.75;;;;;;;-0.06;100.00;99884.94;4995462;28;20100;-74
2021/12/06 08:00:15;;;;;;;14.38;6.75;;;;;;;0.06;100.00;99888.41;5010441;28;20026;-75
2021/12/06 08:02:41;;;;;;;11.40;5.43;;;;;;;0.14;100.00;99885.06;4994938;28;20042;-73
2021/12/06 08:07:52;;;;;;;11.40;5.05;;;;;;;-0.10;100.00;99892.59;4995497;28;20077;-73
2021/12/06 08:10:17;;;;;;;11.85;5.35;;;;;;;-0.20;100.00;99893.38;4993939;28;20080;-73
2021/12/06 08:12:43;;;;;;;13.23;5.15;;;;;;;-0.22;100.00;99900.22;4993741;28;20026;-73
2021/12/06 08:15:09;;;;;;;11.70;5.38;;;;;;;-0.13;100.00;99890.88;4994985;28;20030;-73
2021/12/06 08:17:35;;;;;;;9.73;4.15;;;;;;;-0.37;100.00;99891.53;4994608;28;20051;-74
2021/12/06 08:20:00;;;;;;;11.75;6.47;;;;;;;-0.55;100.00;99888.81;5009843;28;20061;-73
2021/12/06 08:22:25;;;;;;;14.98;5.03;;;;;;;-0.58;100.00;99893.91;4994479;28;20081;-73
2021/12/06 08:24:51;;;;;;;13.85;5.13;;;;;;;-0.89;100.00;99894.44;4994765;28;20460;-73
2021/12/06 08:27:16;;;;;;;15.27;5.57;;;;;;;-0.81;100.00;99903.13;4994772;28;20433;-73
2021/12/06 08:29:43;;;;;;;14.65;6.03;;;;;;;-0.74;100.00;99899.72;4994541;28;20034;-73
2021/12/06 08:32:10;;;;;;;15.02;5.63;;;;;;;-0.83;100.00;99897.09;4994374;28;20457;-72
2021/12/06 08:34:35;;;;;;;15.88;6.50;;;;;;;-0.74;100.00;99902.31;4994481;28;20037;-72
2021/12/06 08:37:01;;;;;;;20.80;6.90;;;;;;;-0.83;100.00;99892.81;4994542;28;20035;-72
2021/12/06 08:39:27;;;;;;;12.75;5.55;;;;;;;-0.87;100.00;99900.47;4994605;28;20457;-73
2021/12/06 08:41:52;;;;;;;16.83;6.13;;;;;;;-0.84;100.00;99905.66;4993159;28;20034;-73
2021/12/06 08:44:18;;;;;;;16.27;7.78;;;;;;;-0.79;100.00;99907.41;4993657;28;20042;-72
2021/12/06 08:46:44;;;;;;;15.80;6.28;;;;;;;-0.66;100.00;99913.53;4994210;28;20678;-72
2021/12/06 08:49:10;;;;;;;;;;;;;;;-0.67;100.00;99919.50;4994779;28;20533;-73
2021/12/06 08:51:40;;;;;;;15.10;6.50;;;;;;;-0.60;100.00;99917.88;4994115;28;19997;-73
2021/12/06 08:54:07;;;;;;;18.40;6.57;;;;;;;-0.61;100.00;99917.00;4992295;28;20026;-73
2021/12/06 08:56:34;;;;;;;17.55;6.68;;;;;;;-0.55;100.00;99922.22;4993882;28;20061;-73
2021/12/06 08:59:00;;;;;;;15.55;7.40;;;;;;;-0.15;100.00;99923.44;4993643;28;20089;-73
2021/12/06 09:01:26;;;;;;;16.27;6.57;;;;;;;0.39;100.00;99926.38;4994002;28;20034;-73
2021/12/06 09:03:52;;;;;;;21.35;7.53;;;;;;;0.28;100.00;99927.19;4993899;28;20038;-73
2021/12/06 09:06:17;;;;;;;27.38;8.43;;;;;;;0.26;100.00;99923.75;4992486;28;20420;-73
2021/12/06 09:08:43;;;;;;;25.52;8.52;;;;;;;0.08;100.00;99923.59;4993736;28;20121;-73
2021/12/06 09:11:10;;;;;;;17.45;7.07;;;;;;;0.13;100.00;99931.34;4993487;28;20034;-73
2021/12/06 09:13:37;;;;;;;19.67;8.25;;;;;;;0.37;100.00;99930.69;4993395;28;20030;-73
2021/12/06 09:16:04;;;;;;;22.13;7.30;;;;;;;0.20;100.00;99925.41;4993202;28;20209;-73
2021/12/06 09:18:34;;;;;;;15.38;7.60;;;;;;;0.36;100.00;99918.66;4993883;28;20117;-73
2021/12/06 09:21:00;;;;;;;18.48;7.50;;;;;;;0.38;100.00;99914.34;4993732;28;20026;-73
2021/12/06 09:23:26;;;;;;;20.25;7.68;;;;;;;0.57;100.00;99913.63;4956539;28;20057;-73
2021/12/06 09:25:51;;;;;;;19.25;7.28;;;;;;;0.65;100.00;99911.94;4993544;28;20358;-73
2021/12/06 09:28:17;;;;;;;16.33;7.65;;;;;;;0.79;100.00;99917.16;4993300;28;20458;-73
2021/12/06 09:30:43;;;;;;;;;;;;;;;0.78;100.00;99913.72;4993967;28;20038;-73
2021/12/06 09:33:14;;;;;;;20.00;7.43;;;;;;;0.84;100.00;99903.44;4993125;28;19913;-73
2021/12/06 09:35:43;;;;;;;20.02;7.28;;;;;;;0.90;100.00;99897.44;4993444;28;20060;-74
2021/12/06 09:38:10;;;;;;;18.38;7.20;;;;;;;1.10;100.00;99895.81;4993661;28;20137;-73
2021/12/06 09:40:39;;;;;;;18.25;7.32;;;;;;;1.26;100.00;99892.41;4993511;28;20038;-74
2021/12/06 09:43:08;;;;;;;14.75;6.68;;;;;;;1.11;100.00;99902.69;4993478;28;20409;-74
2021/12/06 09:45:34;;;;;;;13.77;7.03;;;;;;;1.10;100.00;99905.25;4992298;28;20034;-73
2021/12/06 09:48:05;;;;;;;13.50;6.25;;;;;;;1.23;100.00;99902.69;4993553;28;20117;-74
2021/12/06 09:50:52;;;;;;;14.88;7.00;;;;;;;1.36;100.00;99897.59;4994165;28;20129;-74
2021/12/06 09:53:24;;;;;;;14.00;6.75;;;;;;;1.28;100.00;99898.41;4993487;28;20037;-74
2021/12/06 09:55:55;;;;;;;15.30;7.25;;;;;;;1.48;100.00;99901.06;4993548;28;20354;-75
2021/12/06 09:58:21;;;;;;;11.27;5.05;;;;;;;1.82;100.00;99899.34;4997833;28;20415;-74
2021/12/06 10:00:50;;;;;;;;;;;;;;;1.93;100.00;99894.16;4996560;28;20389;-74
2021/12/06 10:03:22;;;;;;;12.80;6.03;;;;;;;2.16;100.00;99909.66;4996059;28;20387;-75
2021/12/06 10:05:47;;;;;;;12.38;5.85;;;;;;;2.31;100.00;99907.03;5012453;28;20030;-74
2021/12/06 10:08:13;;;;;;;13.43;5.93;;;;;;;2.44;100.00;99907.88;4997153;28;20042;-73
2021/12/06 10:10:39;;;;;;;12.18;5.13;;;;;;;2.56;100.00;99906.13;4997787;28;20038;-73
2021/12/06 10:13:05;;;;;;;13.38;4.70;;;;;;;2.77;100.00;99905.19;4997043;28;20030;-75
2021/12/06 10:15:30;;;;;;;12.00;5.40;;;;;;;2.97;100.00;99889.63;4996906;28;20480;-75
2021/12/06 10:17:58;;;;;;;9.63;4.45;;;;;;;3.01;100.00;99904.22;4997376;28;20109;-73
2021/12/06 10:20:25;;;;;;;12.30;4.85;;;;;;;3.03;100.00;99897.31;4997025;28;20062;-73
2021/12/06 10:22:51;;;;;;;13.13;5.68;;;;;;;3.13;100.00;99892.97;4997133;28;20037;-74
2021/12/06 10:25:17;;;;;;;10.35;4.45;;;;;;;3.27;100.00;99891.16;4997022;28;20027;-73
2021/12/06 10:27:55;;;;;;;10.25;4.55;;;;;;;3.39;100.00;99878.13;4997096;28;20097;-73
2021/12/06 10:30:22;;;;;;;9.70;3.95;;;;;;;3.53;100.00;99881.50;4997095;28;20045;-74
2021/12/06 10:32:48;;;;;;;9.30;4.43;;;;;;;3.59;100.00;99886.63;4996891;28;20417;-73
2021/12/06 10:35:16;;;;;;;9.75;4.13;;;;;;;3.75;100.00;99886.50;4996642;28;20089;-74
2021/12/06 10:37:47;;;;;;;8.40;4.07;;;;;;;3.80;100.00;99887.31;4996553;28;20100;-74
2021/12/06 10:40:23;;;;;;;11.20;4.55;;;;;;;3.73;100.00;99886.50;4995455;28;20038;-73
2021/12/06 10:42:51;;;;;;;11.07;4.60;;;;;;;3.77;100.00;99883.03;4996555;28;20484;-74
2021/12/06 10:45:19;;;;;;;9.20;4.47;;;;;;;3.80;100.00;99875.25;4996434;28;20027;-73
2021/12/06 10:48:06;;;;;;;11.82;5.72;;;;;;;3.91;100.00;99872.56;4996464;28;20082;-74
2021/12/06 10:50:32;;;;;;;12.73;5.55;;;;;;;3.92;100.00;99872.56;5001712;28;20061;-74
2021/12/06 10:53:00;;;;;;;;;;;;;;;3.91;100.00;99868.25;4995426;28;20053;-74
2021/12/06 10:55:29;;;;;;;9.65;4.40;;;;;;;4.00;100.00;99864.72;4996585;28;19918;-74
2021/12/06 10:58:00;;;;;;;13.07;5.53;;;;;;;4.09;100.00;99858.59;5012040;28;20080;-74
2021/12/06 11:00:48;;;;;;;12.05;4.93;;;;;;;4.12;100.00;99850.78;4995957;28;20065;-74
2021/12/06 11:03:25;;;;;;;9.48;4.40;;;;;;;4.15;100.00;99849.03;4996147;28;20056;-74
2021/12/06 11:05:55;;;;;;;12.38;4.35;;;;;;;4.19;100.00;99844.69;4996372;28;20048;-73
2021/12/06 11:08:22;;;;;;;12.23;5.50;;;;;;;4.29;100.00;99848.91;4995962;28;20034;-74
2021/12/06 11:10:58;;;;;;;11.40;5.22;;;;;;;4.27;100.00;99838.53;5011888;28;20030;-74
2021/12/06 11:13:31;;;;;;;11.88;4.75;;;;;;;4.23;100.00;99841.19;5011430;28;20120;-73
2021/12/06 11:16:07;;;;;;;11.07;5.03;;;;;;;4.21;100.00;99832.56;4996417;28;20401;-74
2021/12/06 11:18:36;;;;;;;8.75;5.05;;;;;;;4.10;100.00;99837.84;4996445;28;20031;-74
2021/12/06 11:21:12;;;;;;;13.23;5.07;;;;;;;4.16;100.00;99842.13;4995605;28;20417;-75
2021/12/06 11:23:55;;;;;;;11.07;5.30;;;;;;;3.97;100.00;99844.03;4995473;28;20389;-73
2021/12/06 11:26:21;;;;;;;12.05;5.47;;;;;;;3.89;100.00;99835.47;4955504;28;20051;-73
2021/12/06 11:28:46;;;;;;;13.63;6.13;;;;;;;3.92;100.00;99830.28;4995781;28;20037;-73
2021/12/06 11:31:15;;;;;;;12.53;5.50;;;;;;;3.77;100.00;99828.69;4995511;28;20396;-73
2021/12/06 11:33:41;;;;;;;13.93;6.10;;;;;;;3.89;100.00;99820.81;4995851;28;20281;-73
2021/12/06 11:36:21;;;;;;;15.90;7.20;;;;;;;3.91;100.00;99823.38;4994548;28;20381;-73
2021/12/06 11:38:56;;;;;;;19.33;8.52;;;;;;;3.84;100.00;99824.31;4995516;28;20445;-74
2021/12/06 11:41:21;;;;;;;17.58;7.65;;;;;;;3.83;100.00;99814.81;4994233;28;20454;-73
2021/12/06 11:43:47;;;;;;;17.42;7.78;;;;;;;3.95;100.00;99809.53;4995583;28;20081;-73
2021/12/06 11:46:12;;;;;;;23.05;8.05;;;;;;;3.99;100.00;99806.91;4995488;28;20034;-73